sensor_id;sensor_type;location;lat;lon;timestamp;pressure;altitude;pressure_sealevel;temperature;humidity
23677;BME280;31493;49.058;12.190;2023-01-26T00:00:52;96562.91;;;-1.92;100.00
23677;BME280;31493;49.058;12.190;2023-01-26T00:03:20;96558.41;;;-1.69;100.00
23677;BME280;31493;49.058;12.190;2023-01-26T00:05:47;96545.03;;;-1.84;100.00
23677;BME280;31493;49.058;12.190;2023-01-26T00:08:14;96537.34;;;-1.77;100.00
23677;BME280;31493;49.058;12.190;2023-01-26T00:10:42;96540.53;;;-1.59;100.00
23677;BME280;31493;49.058;12.190;2023-01-26T00:13:17;96530.44;;;-1.67;100.00
23677;BME280;31493;49.058;12.190;2023-01-26T00:15:44;96537.28;;;-1.71;100.00
23677;BME280;31493;49.058;12.190;2023-01-26T00:18:13;96540.63;;;-1.69;100.00
23677;BME280;31493;49.058;12.190;2023-01-26T00:20:40;96546.44;;;-1.59;100.00
23677;BME280;31493;49.058;12.190;2023-01-26T00:23:07;96528.75;;;-1.65;100.00
23677;BME280;31493;49.058;12.190;2023-01-26T00:25:36;96527.06;;;-1.68;100.00
23677;BME280;31493;49.058;12.190;2023-01-26T00:28:04;96532.00;;;-1.55;100.00
23677;BME280;31493;49.058;12.190;2023-01-26T00:30:32;96527.72;;;-1.52;100.00
23677;BME280;31493;49.058;12.190;2023-01-26T00:32:59;96520.09;;;-1.50;100.00
23677;BME280;31493;49.058;12.190;2023-01-26T00:35:26;96526.97;;;-1.58;100.00
23677;BME280;31493;49.058;12.190;2023-01-26T00:37:53;96520.97;;;-1.53;100.00
23677;BME280;31493;49.058;12.190;2023-01-26T00:40:21;96520.13;;;-1.53;100.00
23677;BME280;31493;49.058;12.190;2023-01-26T00:42:48;96513.28;;;-1.48;100.00
23677;BME280;31493;49.058;12.190;2023-01-26T00:45:15;96503.94;;;-1.48;100.00
23677;BME280;31493;49.058;12.190;2023-01-26T00:47:43;96501.53;;;-1.55;100.00
23677;BME280;31493;49.058;12.190;2023-01-26T00:50:10;96494.03;;;-1.63;100.00
23677;BME280;31493;49.058;12.190;2023-01-26T00:52:38;96497.44;;;-1.64;100.00
23677;BME280;31493;49.058;12.190;2023-01-26T00:55:05;96488.03;;;-1.57;100.00
23677;BME280;31493;49.058;12.190;2023-01-26T00:57:33;96488.72;;;-1.48;100.00
23677;BME280;31493;49.058;12.190;2023-01-26T01:00:00;96496.63;;;-1.69;100.00
23677;BME280;31493;49.058;12.190;2023-01-26T01:02:27;96504.03;;;-1.52;100.00
23677;BME280;31493;49.058;12.190;2023-01-26T01:04:55;96488.97;;;-1.66;100.00
23677;BME280;31493;49.058;12.190;2023-01-26T01:07:22;96501.06;;;-1.83;100.00
23677;BME280;31493;49.058;12.190;2023-01-26T01:09:50;96503.72;;;-1.94;100.00
23677;BME280;31493;49.058;12.190;2023-01-26T01:12:17;96496.00;;;-1.86;100.00
23677;BME280;31493;49.058;12.190;2023-01-26T01:14:44;96500.34;;;-1.95;100.00
23677;BME280;31493;49.058;12.190;2023-01-26T01:17:11;96489.50;;;-2.07;100.00
23677;BME280;31493;49.058;12.190;2023-01-26T01:19:38;96502.16;;;-2.06;100.00
23677;BME280;31493;49.058;12.190;2023-01-26T01:22:06;96503.13;;;-2.14;100.00
23677;BME280;31493;49.058;12.190;2023-01-26T01:24:33;96497.97;;;-2.10;100.00
23677;BME280;31493;49.058;12.190;2023-01-26T01:27:01;96500.66;;;-2.22;100.00
23677;BME280;31493;49.058;12.190;2023-01-26T01:29:28;96496.28;;;-2.09;100.00
23677;BME280;31493;49.058;12.190;2023-01-26T01:31:55;96494.69;;;-2.18;100.00
23677;BME280;31493;49.058;12.190;2023-01-26T01:34:23;96493.88;;;-2.19;100.00
23677;BME280;31493;49.058;12.190;2023-01-26T01:36:50;96501.44;;;-2.17;100.00
23677;BME280;31493;49.058;12.190;2023-01-26T01:39:18;96509.09;;;-2.22;100.00
23677;BME280;31493;49.058;12.190;2023-01-26T01:41:45;96506.59;;;-2.25;100.00
23677;BME280;31493;49.058;12.190;2023-01-26T01:44:15;96493.59;;;-1.97;100.00
23677;BME280;31493;49.058;12.190;2023-01-26T01:46:49;96494.41;;;-1.94;100.00
23677;BME280;31493;49.058;12.190;2023-01-26T01:49:19;96486.81;;;-1.95;100.00
23677;BME280;31493;49.058;12.190;2023-01-26T01:51:52;96474.84;;;-1.84;100.00
23677;BME280;31493;49.058;12.190;2023-01-26T01:54:25;96476.44;;;-1.77;100.00
23677;BME280;31493;49.058;12.190;2023-01-26T01:56:57;96478.84;;;-1.68;100.00
23677;BME280;31493;49.058;12.190;2023-01-26T01:59:26;96460.31;;;-1.74;100.00
23677;BME280;31493;49.058;12.190;2023-01-26T02:01:54;96467.06;;;-1.72;100.00
23677;BME280;31493;49.058;12.190;2023-01-26T02:04:23;96459.50;;;-1.76;100.00
23677;BME280;31493;49.058;12.190;2023-01-26T02:06:52;96449.34;;;-1.76;100.00
23677;BME280;31493;49.058;12.190;2023-01-26T02:09:26;96439.13;;;-1.70;100.00
23677;BME280;31493;49.058;12.190;2023-01-26T02:12:14;96448.34;;;-1.66;100.00
23677;BME280;31493;49.058;12.190;2023-01-26T02:14:43;96442.34;;;-1.59;100.00
23677;BME280;31493;49.058;12.190;2023-01-26T02:17:11;96438.13;;;-1.62;100.00
23677;BME280;31493;49.058;12.190;2023-01-26T02:19:45;96430.53;;;-1.62;100.00
23677;BME280;31493;49.058;12.190;2023-01-26T02:22:22;96421.34;;;-1.70;100.00
23677;BME280;31493;49.058;12.190;2023-01-26T02:24:58;96430.00;;;-1.83;100.00
23677;BME280;31493;49.058;12.190;2023-01-26T02:27:31;96428.53;;;-2.01;100.00
23677;BME280;31493;49.058;12.190;2023-01-26T02:29:59;96420.66;;;-1.81;100.00
23677;BME280;31493;49.058;12.190;2023-01-26T02:32:27;96420.47;;;-1.69;100.00
23677;BME280;31493;49.058;12.190;2023-01-26T02:34:54;96403.56;;;-1.69;100.00
23677;BME280;31493;49.058;12.190;2023-01-26T02:37:22;96414.91;;;-1.94;100.00
23677;BME280;31493;49.058;12.190;2023-01-26T02:39:53;96412.94;;;-1.75;100.00
23677;BME280;31493;49.058;12.190;2023-01-26T02:42:22;96413.34;;;-2.04;100.00
23677;BME280;31493;49.058;12.190;2023-01-26T02:45:08;96406.69;;;-2.13;100.00
23677;BME280;31493;49.058;12.190;2023-01-26T02:47:36;96402.94;;;-1.86;100.00
23677;BME280;31493;49.058;12.190;2023-01-26T02:50:05;96402.91;;;-1.83;100.00
23677;BME280;31493;49.058;12.190;2023-01-26T02:52:32;96399.38;;;-1.71;100.00
23677;BME280;31493;49.058;12.190;2023-01-26T02:54:59;96400.06;;;-1.62;100.00
23677;BME280;31493;49.058;12.190;2023-01-26T02:57:44;96385.81;;;-1.70;100.00
23677;BME280;31493;49.058;12.190;2023-01-26T03:00:14;96390.81;;;-1.67;100.00
23677;BME280;31493;49.058;12.190;2023-01-26T03:02:43;96379.16;;;-1.77;100.00
23677;BME280;31493;49.058;12.190;2023-01-26T03:05:10;96388.63;;;-1.92;100.00
23677;BME280;31493;49.058;12.190;2023-01-26T03:07:37;96388.66;;;-1.93;100.00
23677;BME280;31493;49.058;12.190;2023-01-26T03:10:05;96394.56;;;-1.91;100.00
23677;BME280;31493;49.058;12.190;2023-01-26T03:12:33;96391.91;;;-1.82;100.00
23677;BME280;31493;49.058;12.190;2023-01-26T03:15:00;96392.06;;;-1.94;100.00
23677;BME280;31493;49.058;12.190;2023-01-26T03:17:46;96398.78;;;-1.90;100.00
23677;BME280;31493;49.058;12.190;2023-01-26T03:20:13;96403.88;;;-1.92;100.00
23677;BME280;31493;49.058;12.190;2023-01-26T03:22:58;96399.59;;;-1.88;100.00
23677;BME280;31493;49.058;12.190;2023-01-26T03:25:39;96394.50;;;-1.86;100.00
23677;BME280;31493;49.058;12.190;2023-01-26T03:28:24;96389.41;;;-1.83;100.00
23677;BME280;31493;49.058;12.190;2023-01-26T03:30:53;96389.28;;;-1.76;100.00
23677;BME280;31493;49.058;12.190;2023-01-26T03:33:22;96396.16;;;-1.84;100.00
23677;BME280;31493;49.058;12.190;2023-01-26T03:35:51;96386.94;;;-1.90;100.00
23677;BME280;31493;49.058;12.190;2023-01-26T03:38:18;96385.31;;;-1.95;100.00
23677;BME280;31493;49.058;12.190;2023-01-26T03:40:45;96388.66;;;-1.90;100.00
23677;BME280;31493;49.058;12.190;2023-01-26T03:43:30;96383.38;;;-1.79;100.00
23677;BME280;31493;49.058;12.190;2023-01-26T03:46:14;96381.66;;;-1.76;100.00
23677;BME280;31493;49.058;12.190;2023-01-26T03:49:00;96373.22;;;-1.76;100.00
23677;BME280;31493;49.058;12.190;2023-01-26T03:51:44;96370.44;;;-1.63;100.00
23677;BME280;31493;49.058;12.190;2023-01-26T03:54:29;96380.69;;;-1.69;100.00
23677;BME280;31493;49.058;12.190;2023-01-26T03:57:13;96379.16;;;-1.77;100.00
23677;BME280;31493;49.058;12.190;2023-01-26T03:59:40;96379.94;;;-1.74;100.00
23677;BME280;31493;49.058;12.190;2023-01-26T04:02:09;96378.22;;;-1.72;100.00
23677;BME280;31493;49.058;12.190;2023-01-26T04:04:56;96379.66;;;-1.55;100.00
23677;BME280;31493;49.058;12.190;2023-01-26T04:07:40;96376.47;;;-1.68;100.00
23677;BME280;31493;49.058;12.190;2023-01-26T04:10:25;96374.88;;;-1.75;100.00
23677;BME280;31493;49.058;12.190;2023-01-26T04:12:52;96381.69;;;-1.77;100.00
23677;BME280;31493;49.058;12.190;2023-01-26T04:15:37;96375.94;;;-1.88;100.00
23677;BME280;31493;49.058;12.190;2023-01-26T04:18:22;96374.91;;;-1.77;100.00
23677;BME280;31493;49.058;12.190;2023-01-26T04:21:09;96367.97;;;-1.66;100.00
23677;BME280;31493;49.058;12.190;2023-01-26T04:23:56;96364.53;;;-1.63;100.00
23677;BME280;31493;49.058;12.190;2023-01-26T04:26:24;96363.72;;;-1.67;100.00
23677;BME280;31493;49.058;12.190;2023-01-26T04:28:52;96356.22;;;-1.71;100.00
23677;BME280;31493;49.058;12.190;2023-01-26T04:31:19;96361.25;;;-1.70;100.00
23677;BME280;31493;49.058;12.190;2023-01-26T04:33:46;96360.66;;;-1.87;100.00
23677;BME280;31493;49.058;12.190;2023-01-26T04:36:15;96359.88;;;-1.92;100.00
23677;BME280;31493;49.058;12.190;2023-01-26T04:38:42;96358.00;;;-1.79;100.00
23677;BME280;31493;49.058;12.190;2023-01-26T04:41:09;96356.38;;;-1.82;100.00
23677;BME280;31493;49.058;12.190;2023-01-26T04:43:36;96353.06;;;-1.87;100.00
23677;BME280;31493;49.058;12.190;2023-01-26T04:46:04;96354.53;;;-1.74;100.00
23677;BME280;31493;49.058;12.190;2023-01-26T04:48:32;96350.44;;;-1.81;100.00
23677;BME280;31493;49.058;12.190;2023-01-26T04:51:02;96347.66;;;-1.67;100.00
23677;BME280;31493;49.058;12.190;2023-01-26T04:53:32;96352.56;;;-2.12;100.00
23677;BME280;31493;49.058;12.190;2023-01-26T04:55:59;96356.00;;;-2.14;100.00
23677;BME280;31493;49.058;12.190;2023-01-26T04:58:26;96353.47;;;-2.16;100.00
23677;BME280;31493;49.058;12.190;2023-01-26T05:00:54;96355.56;;;-1.84;100.00
23677;BME280;31493;49.058;12.190;2023-01-26T05:03:22;96346.69;;;-2.14;100.00
23677;BME280;31493;49.058;12.190;2023-01-26T05:05:51;96348.38;;;-2.16;100.00
23677;BME280;31493;49.058;12.190;2023-01-26T05:08:19;96350.66;;;-1.96;100.00
23677;BME280;31493;49.058;12.190;2023-01-26T05:10:48;96347.47;;;-2.10;100.00
23677;BME280;31493;49.058;12.190;2023-01-26T05:13:16;96356.91;;;-2.22;100.00
23677;BME280;31493;49.058;12.190;2023-01-26T05:15:43;96348.13;;;-1.98;100.00
23677;BME280;31493;49.058;12.190;2023-01-26T05:18:10;96346.44;;;-1.96;100.00
23677;BME280;31493;49.058;12.190;2023-01-26T05:20:37;96366.47;;;-1.79;100.00
23677;BME280;31493;49.058;12.190;2023-01-26T05:23:05;96351.34;;;-1.86;100.00
23677;BME280;31493;49.058;12.190;2023-01-26T05:25:32;96363.06;;;-1.76;100.00
23677;BME280;31493;49.058;12.190;2023-01-26T05:28:00;96354.72;;;-1.86;100.00
23677;BME280;31493;49.058;12.190;2023-01-26T05:30:27;96364.94;;;-1.89;100.00
23677;BME280;31493;49.058;12.190;2023-01-26T05:32:59;96368.28;;;-1.87;100.00
23677;BME280;31493;49.058;12.190;2023-01-26T05:35:26;96370.88;;;-1.92;100.00
23677;BME280;31493;49.058;12.190;2023-01-26T05:37:53;96358.19;;;-1.90;100.00
23677;BME280;31493;49.058;12.190;2023-01-26T05:40:21;96353.16;;;-1.93;100.00
23677;BME280;31493;49.058;12.190;2023-01-26T05:42:49;96357.28;;;-1.87;100.00
23677;BME280;31493;49.058;12.190;2023-01-26T05:45:18;96365.03;;;-1.95;100.00
23677;BME280;31493;49.058;12.190;2023-01-26T05:47:46;96349.88;;;-2.01;100.00
23677;BME280;31493;49.058;12.190;2023-01-26T05:50:13;96354.88;;;-1.95;100.00
23677;BME280;31493;49.058;12.190;2023-01-26T05:52:41;96350.59;;;-1.93;100.00
23677;BME280;31493;49.058;12.190;2023-01-26T05:55:08;96347.25;;;-1.95;100.00
23677;BME280;31493;49.058;12.190;2023-01-26T05:57:35;96360.56;;;-1.81;100.00
23677;BME280;31493;49.058;12.190;2023-01-26T06:00:03;96348.78;;;-1.83;100.00
23677;BME280;31493;49.058;12.190;2023-01-26T06:02:32;96359.03;;;-1.90;100.00
23677;BME280;31493;49.058;12.190;2023-01-26T06:04:59;96349.69;;;-1.87;100.00
23677;BME280;31493;49.058;12.190;2023-01-26T06:07:26;96354.69;;;-1.84;100.00
23677;BME280;31493;49.058;12.190;2023-01-26T06:09:53;96353.09;;;-1.88;100.00
23677;BME280;31493;49.058;12.190;2023-01-26T06:12:21;96351.28;;;-1.82;100.00
23677;BME280;31493;49.058;12.190;2023-01-26T06:14:48;96344.34;;;-1.72;100.00
23677;BME280;31493;49.058;12.190;2023-01-26T06:17:17;96346.31;;;-1.88;100.00
23677;BME280;31493;49.058;12.190;2023-01-26T06:19:45;96357.00;;;-1.68;100.00
23677;BME280;31493;49.058;12.190;2023-01-26T06:22:13;96350.22;;;-1.67;100.00
23677;BME280;31493;49.058;12.190;2023-01-26T06:24:40;96343.78;;;-1.88;100.00
23677;BME280;31493;49.058;12.190;2023-01-26T06:27:11;96355.88;;;-2.07;100.00
23677;BME280;31493;49.058;12.190;2023-01-26T06:29:38;96349.66;;;-1.86;100.00
23677;BME280;31493;49.058;12.190;2023-01-26T06:32:06;96360.63;;;-1.85;100.00
23677;BME280;31493;49.058;12.190;2023-01-26T06:34:33;96355.56;;;-1.85;100.00
23677;BME280;31493;49.058;12.190;2023-01-26T06:37:01;96343.97;;;-2.02;100.00
23677;BME280;31493;49.058;12.190;2023-01-26T06:39:28;96347.34;;;-2.03;100.00
23677;BME280;31493;49.058;12.190;2023-01-26T06:41:55;96346.34;;;-1.91;100.00
23677;BME280;31493;49.058;12.190;2023-01-26T06:44:22;96340.34;;;-1.84;100.00
23677;BME280;31493;49.058;12.190;2023-01-26T06:46:49;96342.81;;;-1.81;100.00
23677;BME280;31493;49.058;12.190;2023-01-26T06:49:16;96341.25;;;-1.90;100.00
23677;BME280;31493;49.058;12.190;2023-01-26T06:51:46;96324.25;;;-1.84;100.00
23677;BME280;31493;49.058;12.190;2023-01-26T06:54:19;96333.63;;;-1.88;100.00
23677;BME280;31493;49.058;12.190;2023-01-26T06:56:46;96338.72;;;-1.91;100.00
23677;BME280;31493;49.058;12.190;2023-01-26T06:59:14;96333.66;;;-1.90;100.00
23677;BME280;31493;49.058;12.190;2023-01-26T07:01:44;96326.69;;;-1.78;100.00
23677;BME280;31493;49.058;12.190;2023-01-26T07:04:12;96341.06;;;-1.79;100.00
23677;BME280;31493;49.058;12.190;2023-01-26T07:06:39;96325.13;;;-1.87;100.00
23677;BME280;31493;49.058;12.190;2023-01-26T07:09:06;96330.31;;;-1.93;100.00
23677;BME280;31493;49.058;12.190;2023-01-26T07:11:35;96335.94;;;-1.74;100.00
23677;BME280;31493;49.058;12.190;2023-01-26T07:14:02;96335.91;;;-1.71;100.00
23677;BME280;31493;49.058;12.190;2023-01-26T07:16:29;96340.34;;;-1.84;100.00
23677;BME280;31493;49.058;12.190;2023-01-26T07:18:56;96331.69;;;-1.74;100.00
23677;BME280;31493;49.058;12.190;2023-01-26T07:21:23;96341.94;;;-1.80;100.00
23677;BME280;31493;49.058;12.190;2023-01-26T07:23:50;96341.91;;;-1.77;100.00
23677;BME280;31493;49.058;12.190;2023-01-26T07:26:18;96336.94;;;-1.84;100.00
23677;BME280;31493;49.058;12.190;2023-01-26T07:28:47;96335.78;;;-1.64;100.00
23677;BME280;31493;49.058;12.190;2023-01-26T07:31:14;96328.72;;;-2.00;100.00
23677;BME280;31493;49.058;12.190;2023-01-26T07:33:41;96332.13;;;-2.03;100.00
23677;BME280;31493;49.058;12.190;2023-01-26T07:36:08;96331.38;;;-2.08;100.00
23677;BME280;31493;49.058;12.190;2023-01-26T07:38:37;96333.66;;;-1.91;100.00
23677;BME280;31493;49.058;12.190;2023-01-26T07:41:06;96336.38;;;-2.03;100.00
23677;BME280;31493;49.058;12.190;2023-01-26T07:43:35;96331.28;;;-2.02;100.00
23677;BME280;31493;49.058;12.190;2023-01-26T07:46:04;96334.44;;;-1.87;100.00
23677;BME280;31493;49.058;12.190;2023-01-26T07:48:31;96340.53;;;-1.99;100.00
23677;BME280;31493;49.058;12.190;2023-01-26T07:51:00;96341.38;;;-1.99;100.00
23677;BME280;31493;49.058;12.190;2023-01-26T07:53:29;96341.34;;;-1.96;100.00
23677;BME280;31493;49.058;12.190;2023-01-26T07:56:06;96333.00;;;-2.04;100.00
23677;BME280;31493;49.058;12.190;2023-01-26T07:58:33;96332.88;;;-1.95;100.00
23677;BME280;31493;49.058;12.190;2023-01-26T08:01:07;96333.13;;;-2.13;100.00
23677;BME280;31493;49.058;12.190;2023-01-26T08:03:34;96333.84;;;-2.05;100.00
23677;BME280;31493;49.058;12.190;2023-01-26T08:06:02;96333.91;;;-2.08;100.00
23677;BME280;31493;49.058;12.190;2023-01-26T08:08:29;96332.06;;;-1.98;100.00
23677;BME280;31493;49.058;12.190;2023-01-26T08:10:57;96329.63;;;-2.04;100.00
23677;BME280;31493;49.058;12.190;2023-01-26T08:13:25;96334.72;;;-2.06;100.00
23677;BME280;31493;49.058;12.190;2023-01-26T08:15:52;96331.81;;;-1.81;100.00
23677;BME280;31493;49.058;12.190;2023-01-26T08:18:21;96332.69;;;-1.82;100.00
23677;BME280;31493;49.058;12.190;2023-01-26T08:20:49;96331.34;;;-2.06;100.00
23677;BME280;31493;49.058;12.190;2023-01-26T08:23:16;96333.91;;;-2.08;100.00
23677;BME280;31493;49.058;12.190;2023-01-26T08:25:44;96335.75;;;-2.19;100.00
23677;BME280;31493;49.058;12.190;2023-01-26T08:28:11;96334.91;;;-2.21;100.00
23677;BME280;31493;49.058;12.190;2023-01-26T08:30:38;96329.91;;;-2.24;100.00
23677;BME280;31493;49.058;12.190;2023-01-26T08:33:05;96339.25;;;-2.26;100.00
23677;BME280;31493;49.058;12.190;2023-01-26T08:35:34;96339.16;;;-2.20;100.00
23677;BME280;31493;49.058;12.190;2023-01-26T08:38:01;96329.75;;;-2.15;100.00
23677;BME280;31493;49.058;12.190;2023-01-26T08:40:28;96343.31;;;-2.16;100.00
23677;BME280;31493;49.058;12.190;2023-01-26T08:42:58;96333.03;;;-2.05;100.00
23677;BME280;31493;49.058;12.190;2023-01-26T08:45:25;96331.63;;;-2.28;100.00
23677;BME280;31493;49.058;12.190;2023-01-26T08:47:53;96331.44;;;-2.12;100.00
23677;BME280;31493;49.058;12.190;2023-01-26T08:50:20;96332.13;;;-2.03;100.00
23677;BME280;31493;49.058;12.190;2023-01-26T08:52:48;96323.84;;;-2.16;100.00
23677;BME280;31493;49.058;12.190;2023-01-26T08:55:15;96333.25;;;-2.21;100.00
23677;BME280;31493;49.058;12.190;2023-01-26T08:57:42;96324.41;;;-1.97;100.00
23677;BME280;31493;49.058;12.190;2023-01-26T09:00:11;96332.34;;;-2.18;100.00
23677;BME280;31493;49.058;12.190;2023-01-26T09:02:38;96321.41;;;-2.22;100.00
23677;BME280;31493;49.058;12.190;2023-01-26T09:05:06;96329.69;;;-2.09;100.00
23677;BME280;31493;49.058;12.190;2023-01-26T09:07:34;96324.44;;;-1.95;100.00
23677;BME280;31493;49.058;12.190;2023-01-26T09:10:03;96334.41;;;-1.83;100.00
23677;BME280;31493;49.058;12.190;2023-01-26T09:12:30;96329.41;;;-1.89;100.00
23677;BME280;31493;49.058;12.190;2023-01-26T09:14:57;96321.69;;;-1.84;100.00
23677;BME280;31493;49.058;12.190;2023-01-26T09:17:24;96335.25;;;-1.84;100.00
23677;BME280;31493;49.058;12.190;2023-01-26T09:19:51;96319.16;;;-1.83;100.00
23677;BME280;31493;49.058;12.190;2023-01-26T09:22:18;96328.47;;;-1.83;100.00
23677;BME280;31493;49.058;12.190;2023-01-26T09:24:45;96316.63;;;-1.83;100.00
23677;BME280;31493;49.058;12.190;2023-01-26T09:27:13;96325.84;;;-1.77;100.00
23677;BME280;31493;49.058;12.190;2023-01-26T09:29:40;96315.69;;;-1.77;100.00
23677;BME280;31493;49.058;12.190;2023-01-26T09:32:07;96315.16;;;-1.99;100.00
23677;BME280;31493;49.058;12.190;2023-01-26T09:34:34;96325.84;;;-1.79;100.00
23677;BME280;31493;49.058;12.190;2023-01-26T09:37:01;96318.22;;;-1.79;100.00
23677;BME280;31493;49.058;12.190;2023-01-26T09:39:28;96315.81;;;-1.86;100.00
23677;BME280;31493;49.058;12.190;2023-01-26T09:42:04;96321.47;;;-1.69;100.00
23677;BME280;31493;49.058;12.190;2023-01-26T09:44:42;96322.03;;;-2.06;100.00
23677;BME280;31493;49.058;12.190;2023-01-26T09:47:16;96319.66;;;-2.17;100.00
23677;BME280;31493;49.058;12.190;2023-01-26T09:49:48;96316.34;;;-2.23;100.00
23677;BME280;31493;49.058;12.190;2023-01-26T09:52:23;96317.84;;;-2.10;100.00
23677;BME280;31493;49.058;12.190;2023-01-26T09:54:53;96322.16;;;-2.15;100.00
23677;BME280;31493;49.058;12.190;2023-01-26T09:57:22;96320.03;;;-1.85;100.00
23677;BME280;31493;49.058;12.190;2023-01-26T09:59:56;96310.13;;;-2.01;100.00
23677;BME280;31493;49.058;12.190;2023-01-26T10:02:49;96305.59;;;-1.82;100.00
23677;BME280;31493;49.058;12.190;2023-01-26T10:05:31;96307.25;;;-1.79;100.00
23677;BME280;31493;49.058;12.190;2023-01-26T10:08:02;96319.88;;;-1.75;100.00
23677;BME280;31493;49.058;12.190;2023-01-26T10:10:34;96313.84;;;-1.68;100.00
23677;BME280;31493;49.058;12.190;2023-01-26T10:13:03;96311.34;;;-1.71;100.00
23677;BME280;31493;49.058;12.190;2023-01-26T10:15:34;96307.88;;;-1.65;100.00
23677;BME280;31493;49.058;12.190;2023-01-26T10:18:06;96309.59;;;-1.67;100.00
23677;BME280;31493;49.058;12.190;2023-01-26T10:20:36;96303.50;;;-1.57;100.00
23677;BME280;31493;49.058;12.190;2023-01-26T10:23:10;96306.59;;;-1.92;100.00
23677;BME280;31493;49.058;12.190;2023-01-26T10:25:39;96295.66;;;-1.94;100.00
23677;BME280;31493;49.058;12.190;2023-01-26T10:28:10;96294.72;;;-1.88;100.00
23677;BME280;31493;49.058;12.190;2023-01-26T10:30:40;96289.56;;;-1.85;100.00
23677;BME280;31493;49.058;12.190;2023-01-26T10:33:13;96287.56;;;-1.65;100.00
23677;BME280;31493;49.058;12.190;2023-01-26T10:35:41;96288.41;;;-1.65;100.00
23677;BME280;31493;49.058;12.190;2023-01-26T10:38:37;96302.59;;;-1.54;100.00
23677;BME280;31493;49.058;12.190;2023-01-26T10:41:06;96303.03;;;-1.80;100.00
23677;BME280;31493;49.058;12.190;2023-01-26T10:43:50;96285.63;;;-2.03;100.00
23677;BME280;31493;49.058;12.190;2023-01-26T10:46:30;96293.03;;;-1.91;100.00
23677;BME280;31493;49.058;12.190;2023-01-26T10:49:00;96282.22;;;-2.01;100.00
23677;BME280;31493;49.058;12.190;2023-01-26T10:51:29;96288.13;;;-2.00;100.00
23677;BME280;31493;49.058;12.190;2023-01-26T10:54:13;96291.13;;;-1.75;100.00
23677;BME280;31493;49.058;12.190;2023-01-26T10:56:45;96283.13;;;-1.52;100.00
23677;BME280;31493;49.058;12.190;2023-01-26T10:59:23;96292.00;;;-1.78;100.00
23677;BME280;31493;49.058;12.190;2023-01-26T11:01:53;96286.38;;;-1.95;100.00
23677;BME280;31493;49.058;12.190;2023-01-26T11:04:21;96290.72;;;-2.05;100.00
23677;BME280;31493;49.058;12.190;2023-01-26T11:06:49;96286.56;;;-2.09;100.00
23677;BME280;31493;49.058;12.190;2023-01-26T11:09:18;96285.59;;;-2.00;100.00
23677;BME280;31493;49.058;12.190;2023-01-26T11:11:57;96285.56;;;-1.99;100.00
23677;BME280;31493;49.058;12.190;2023-01-26T11:14:25;96281.25;;;-1.94;100.00
23677;BME280;31493;49.058;12.190;2023-01-26T11:16:59;96287.13;;;-1.92;100.00
23677;BME280;31493;49.058;12.190;2023-01-26T11:19:46;96288.06;;;-1.96;100.00
23677;BME280;31493;49.058;12.190;2023-01-26T11:22:18;96284.56;;;-1.88;100.00
23677;BME280;31493;49.058;12.190;2023-01-26T11:24:53;96281.28;;;-1.95;100.00
23677;BME280;31493;49.058;12.190;2023-01-26T11:27:39;96273.69;;;-1.97;100.00
23677;BME280;31493;49.058;12.190;2023-01-26T11:30:34;96278.00;;;-2.03;100.00
23677;BME280;31493;49.058;12.190;2023-01-26T11:33:09;96270.28;;;-1.94;100.00
23677;BME280;31493;49.058;12.190;2023-01-26T11:35:46;96267.63;;;-1.88;100.00
23677;BME280;31493;49.058;12.190;2023-01-26T11:38:26;96264.97;;;-1.80;100.00
23677;BME280;31493;49.058;12.190;2023-01-26T11:41:01;96256.78;;;-1.96;100.00
23677;BME280;31493;49.058;12.190;2023-01-26T11:44:15;96255.63;;;-1.78;100.00
23677;BME280;31493;49.058;12.190;2023-01-26T11:47:03;96261.69;;;-1.87;100.00
23677;BME280;31493;49.058;12.190;2023-01-26T11:49:59;96247.91;;;-1.72;100.00
23677;BME280;31493;49.058;12.190;2023-01-26T11:52:35;96247.16;;;-1.79;100.00
23677;BME280;31493;49.058;12.190;2023-01-26T11:55:18;96248.63;;;-1.64;100.00
23677;BME280;31493;49.058;12.190;2023-01-26T11:57:58;96238.28;;;-1.53;100.00
23677;BME280;31493;49.058;12.190;2023-01-26T12:00:36;96231.59;;;-1.57;100.00
23677;BME280;31493;49.058;12.190;2023-01-26T12:03:11;96231.88;;;-1.74;100.00
23677;BME280;31493;49.058;12.190;2023-01-26T12:05:45;96227.66;;;-1.75;100.00
23677;BME280;31493;49.058;12.190;2023-01-26T12:08:16;96239.56;;;-1.77;100.00
23677;BME280;31493;49.058;12.190;2023-01-26T12:10:50;96235.25;;;-1.74;100.00
23677;BME280;31493;49.058;12.190;2023-01-26T12:13:31;96224.25;;;-1.74;100.00
23677;BME280;31493;49.058;12.190;2023-01-26T12:16:07;96231.22;;;-1.85;100.00
23677;BME280;31493;49.058;12.190;2023-01-26T12:18:43;96225.22;;;-1.81;100.00
23677;BME280;31493;49.058;12.190;2023-01-26T12:21:13;96226.78;;;-1.74;100.00
23677;BME280;31493;49.058;12.190;2023-01-26T12:23:46;96205.50;;;-1.66;100.00
23677;BME280;31493;49.058;12.190;2023-01-26T12:26:19;96213.56;;;-1.44;100.00
23677;BME280;31493;49.058;12.190;2023-01-26T12:28:52;96207.22;;;-1.23;100.00
23677;BME280;31493;49.058;12.190;2023-01-26T12:31:25;96212.84;;;-1.50;100.00
23677;BME280;31493;49.058;12.190;2023-01-26T12:33:54;96200.75;;;-1.38;100.00
23677;BME280;31493;49.058;12.190;2023-01-26T12:36:30;96205.84;;;-0.57;100.00
23677;BME280;31493;49.058;12.190;2023-01-26T12:39:11;96191.31;;;-0.89;100.00
23677;BME280;31493;49.058;12.190;2023-01-26T12:41:58;96177.94;;;-0.97;100.00
23677;BME280;31493;49.058;12.190;2023-01-26T12:44:34;96183.38;;;-1.16;100.00
23677;BME280;31493;49.058;12.190;2023-01-26T12:47:10;96176.09;;;-1.32;100.00
23677;BME280;31493;49.058;12.190;2023-01-26T12:49:43;96182.19;;;-0.99;100.00
23677;BME280;31493;49.058;12.190;2023-01-26T12:52:17;96181.81;;;-1.21;100.00
23677;BME280;31493;49.058;12.190;2023-01-26T12:54:55;96174.41;;;-0.92;100.00
23677;BME280;31493;49.058;12.190;2023-01-26T12:57:30;96165.09;;;-0.93;100.00
23677;BME280;31493;49.058;12.190;2023-01-26T13:00:04;96173.84;;;-1.06;100.00